Terminal Aerodrome Forecast
Issued by NWS

Home | Current Version | Previous Version | Text Only | Print | Product List | Glossary On
Versions: 1 2 3 4 5 6 7 8 9 10 11 12 13 14 15 16
000
FTUS44 KBMX 312346 CCA
TAFTOI
TAF COR
KTOI 312346Z 0100/0124 36008KT P6SM VCTS SCT030 BKN050CB
      TEMPO 0100/0101 4SM TSRA SCT020 BKN040CB
     FM010200 05003KT P6SM BKN060 BKN100
     FM010800 00000KT 4SM BR SCT250
     FM011300 03008KT P6SM SCT250
     FM011800 03008KT P6SM BKN050=

USA.gov is the U.S. government's official web portal to all federal, state and local government web resources and services.